Time;durP1;ratioP1;P1;durP2;ratioP2;P2;SDS_P1;SDS_P2;PMS_P1;PMS_P2;Temp;Humidity;BMP_temperature;BMP_pressure;BME280_temperature;BME280_humidity;BME280_pressure;Samples;Min_cycle;Max_cycle;Signal;HPM_P1;HPM_P2
2023/09/24 00:02:19;;;;;;;1.40;1.30;;;;;;;15.10;72.26;96109.72;5070160;28;20270;-85
2023/09/24 00:04:45;;;;;;;1.88;1.48;;;;;;;15.06;72.26;96107.72;5071545;28;20291;-85
2023/09/24 00:07:14;;;;;;;1.75;1.20;;;;;;;15.07;72.23;96107.53;5071612;28;20204;-84
2023/09/24 00:09:40;;;;;;;2.72;1.63;;;;;;;15.09;72.45;96112.53;5072752;28;20208;-85
2023/09/24 00:12:08;;;;;;;2.70;1.30;;;;;;;15.08;72.58;96114.31;5072274;28;20224;-85
2023/09/24 00:14:35;;;;;;;2.42;1.23;;;;;;;15.08;72.48;96122.09;5072130;28;20229;-85
2023/09/24 00:17:01;;;;;;;3.92;1.40;;;;;;;15.13;72.45;96111.16;5072907;28;20584;-85
2023/09/24 00:19:28;;;;;;;1.90;1.38;;;;;;;15.15;72.56;96124.72;5070944;28;20645;-84
2023/09/24 00:21:54;;;;;;;1.63;1.33;;;;;;;15.17;72.28;96108.00;5072149;28;20228;-84
2023/09/24 00:24:21;;;;;;;1.73;1.35;;;;;;;15.14;71.88;96099.78;5072334;28;20207;-85
2023/09/24 00:26:47;;;;;;;1.90;1.45;;;;;;;15.14;71.97;96105.78;5071572;28;20200;-85
2023/09/24 00:29:15;;;;;;;2.05;1.40;;;;;;;15.13;71.84;96101.56;5071965;28;20235;-85
2023/09/24 00:31:42;;;;;;;1.63;1.52;;;;;;;15.13;71.54;96101.56;5071807;28;20285;-84
2023/09/24 00:34:08;;;;;;;1.50;1.30;;;;;;;15.10;72.02;96114.91;5069422;28;20225;-85
2023/09/24 00:36:35;;;;;;;1.70;1.48;;;;;;;15.12;72.18;96122.50;5070859;28;20319;-85
2023/09/24 00:39:02;;;;;;;1.63;1.30;;;;;;;15.13;72.16;96122.31;5070816;28;20193;-86
2023/09/24 00:41:28;;;;;;;2.10;1.40;;;;;;;15.08;71.91;96116.09;5071296;28;20200;-85
2023/09/24 00:43:57;;;;;;;1.92;1.25;;;;;;;15.08;71.88;96124.69;5068529;28;20212;-85
2023/09/24 00:46:25;;;;;;;2.30;1.15;;;;;;;15.06;72.37;96144.81;5072186;28;20250;-84
2023/09/24 00:48:53;;;;;;;3.72;1.48;;;;;;;15.05;72.34;96143.22;5072038;28;20201;-85
2023/09/24 00:51:22;;;;;;;2.40;1.40;;;;;;;15.03;72.57;96150.38;5075522;28;20205;-85
2023/09/24 00:53:51;;;;;;;2.60;1.33;;;;;;;14.91;73.35;96174.44;5065679;28;20221;-84
2023/09/24 00:56:18;;;;;;;2.33;1.23;;;;;;;14.96;73.19;96172.91;5071870;28;20212;-85
2023/09/24 00:58:47;;;;;;;1.40;1.27;;;;;;;14.96;73.03;96170.31;5072554;28;20204;-84
2023/09/24 01:01:14;;;;;;;2.45;1.35;;;;;;;15.00;73.10;96157.75;5075840;28;20245;-84
2023/09/24 01:03:42;;;;;;;1.55;1.33;;;;;;;14.93;73.73;96196.59;5090246;28;20216;-85
2023/09/24 01:06:08;;;;;;;1.67;1.33;;;;;;;14.83;74.88;96217.66;5071495;28;20207;-86
2023/09/24 01:08:36;;;;;;;3.05;1.45;;;;;;;14.81;75.16;96224.03;5070917;28;20203;-85
2023/09/24 01:11:03;;;;;;;1.38;1.20;;;;;;;14.76;75.73;96236.75;5076011;28;20243;-84
2023/09/24 01:13:37;;;;;;;1.65;1.55;;;;;;;14.77;75.06;96226.19;5080838;28;20216;-85
2023/09/24 01:16:04;;;;;;;3.58;1.30;;;;;;;14.81;74.80;96214.47;5094138;28;20200;-85
2023/09/24 01:18:31;;;;;;;1.45;1.25;;;;;;;14.82;74.56;96207.47;5075781;28;20551;-85
2023/09/24 01:20:59;;;;;;;1.60;1.33;;;;;;;14.80;74.38;96214.66;5076873;28;20201;-85
2023/09/24 01:23:29;;;;;;;1.40;1.30;;;;;;;14.84;74.43;96218.47;5083283;28;20308;-85
2023/09/24 01:25:56;;;;;;;1.35;1.25;;;;;;;14.82;74.21;96205.69;5082068;28;20196;-85
2023/09/24 01:28:22;;;;;;;1.40;1.30;;;;;;;14.84;73.72;96193.34;5090768;28;20260;-85
2023/09/24 01:30:49;;;;;;;2.95;1.30;;;;;;;14.85;73.82;96191.53;5091948;28;20657;-85
2023/09/24 01:33:15;;;;;;;1.30;1.20;;;;;;;14.79;74.24;96213.84;5078476;28;20231;-85
2023/09/24 01:35:42;;;;;;;1.95;1.40;;;;;;;14.77;74.37;96215.84;5095829;28;20215;-85
2023/09/24 01:38:08;;;;;;;1.65;1.40;;;;;;;14.76;74.82;96229.78;5095119;28;20215;-84
2023/09/24 01:40:37;;;;;;;3.75;1.27;;;;;;;14.76;74.97;96227.19;5074875;28;20201;-85
2023/09/24 01:43:07;;;;;;;2.25;1.60;;;;;;;14.73;75.13;96227.56;5072085;28;20256;-85
2023/09/24 01:45:34;;;;;;;2.20;1.35;;;;;;;14.71;74.97;96231.31;5076170;28;20279;-84
2023/09/24 01:48:03;;;;;;;1.42;1.30;;;;;;;14.66;75.33;96233.66;5087217;28;20199;-85
2023/09/24 01:50:29;;;;;;;2.42;1.52;;;;;;;14.59;75.14;96241.41;5094509;28;20567;-86
2023/09/24 01:52:57;;;;;;;1.48;1.38;;;;;;;14.44;76.10;96259.56;5054354;28;20567;-85
2023/09/24 01:55:26;;;;;;;1.73;1.50;;;;;;;14.44;76.05;96261.34;5062910;28;20225;-85
2023/09/24 01:57:54;;;;;;;1.58;1.35;;;;;;;14.38;76.69;96275.03;5074774;28;20201;-85
2023/09/24 02:00:25;;;;;;;1.60;1.50;;;;;;;14.39;76.55;96292.97;5074656;28;20563;-85
2023/09/24 02:02:52;;;;;;;1.50;1.40;;;;;;;14.40;76.49;96288.59;5093850;28;20220;-85
2023/09/24 02:05:19;;;;;;;1.88;1.45;;;;;;;14.36;76.96;96302.91;5094655;28;20192;-85
2023/09/24 02:07:46;;;;;;;2.38;1.40;;;;;;;14.27;77.26;96309.16;5090849;28;20212;-85
2023/09/24 02:10:13;;;;;;;1.98;1.30;;;;;;;14.24;77.68;96325.09;5074330;28;20204;-84
2023/09/24 02:12:40;;;;;;;1.20;1.10;;;;;;;14.25;77.51;96326.66;5072883;28;20233;-85
2023/09/24 02:15:12;;;;;;;2.20;1.30;;;;;;;14.24;77.49;96322.50;5073477;28;20249;-85
2023/09/24 02:17:41;;;;;;;1.40;1.30;;;;;;;14.20;77.73;96322.06;5074374;28;20200;-86
2023/09/24 02:20:14;;;;;;;1.83;1.30;;;;;;;14.20;77.78;96334.19;5074160;28;20197;-85
2023/09/24 02:22:42;;;;;;;2.60;1.50;;;;;;;14.17;77.81;96345.72;5073772;28;20223;-85
2023/09/24 02:25:13;;;;;;;2.33;1.42;;;;;;;14.17;77.89;96343.13;5074306;28;20246;-85
2023/09/24 02:27:40;;;;;;;1.75;1.38;;;;;;;14.12;78.52;96361.78;5071964;28;20197;-85
2023/09/24 02:30:11;;;;;;;1.75;1.40;;;;;;;14.14;78.19;96359.03;5073447;28;20208;-85
2023/09/24 02:32:38;;;;;;;2.75;1.30;;;;;;;14.10;78.36;96350.00;5073244;28;20268;-84
2023/09/24 02:35:05;;;;;;;2.40;1.60;;;;;;;14.02;78.94;96368.22;5073163;28;20221;-85
2023/09/24 02:37:32;;;;;;;1.67;1.52;;;;;;;14.05;78.47;96368.66;5073150;28;20209;-85
2023/09/24 02:39:59;;;;;;;3.45;1.60;;;;;;;14.02;78.68;96376.81;5073207;28;20215;-85
2023/09/24 02:42:26;;;;;;;2.45;1.25;;;;;;;14.04;78.68;96379.22;5076237;28;20220;-85
2023/09/24 02:44:52;;;;;;;1.52;1.25;;;;;;;14.04;78.28;96376.63;5075143;28;20201;-85
2023/09/24 02:47:20;;;;;;;3.17;1.58;;;;;;;14.01;78.48;96376.97;5073703;28;20205;-85
2023/09/24 02:49:46;;;;;;;1.50;1.40;;;;;;;13.96;78.85;96385.28;5073200;28;20208;-84
2023/09/24 02:52:13;;;;;;;2.35;1.30;;;;;;;13.85;79.20;96398.66;5072952;28;20228;-85
2023/09/24 02:54:40;;;;;;;1.77;1.48;;;;;;;13.76;79.60;96404.88;5073595;28;20327;-85
2023/09/24 02:57:08;;;;;;;1.58;1.48;;;;;;;13.74;79.83;96412.00;5073169;28;20212;-85
2023/09/24 02:59:35;;;;;;;2.63;1.60;;;;;;;13.69;79.71;96414.31;5071284;28;20602;-85
2023/09/24 03:02:01;;;;;;;1.45;1.10;;;;;;;13.69;79.66;96422.09;5073218;28;20225;-85
2023/09/24 03:04:29;;;;;;;2.03;1.40;;;;;;;13.67;80.43;96447.31;5073184;28;20201;-86
2023/09/24 03:06:56;;;;;;;3.25;1.50;;;;;;;13.74;80.33;96435.31;5081617;28;20241;-85
2023/09/24 03:09:23;;;;;;;2.73;1.50;;;;;;;13.73;80.30;96431.13;5093606;28;20292;-85
2023/09/24 03:11:50;;;;;;;2.63;1.47;;;;;;;13.73;80.01;96431.91;5093039;28;20202;-85
2023/09/24 03:14:16;;;;;;;1.50;1.40;;;;;;;13.79;79.77;96428.63;5092623;28;20207;-85
2023/09/24 03:16:42;;;;;;;2.73;1.30;;;;;;;13.80;79.63;96427.66;5078170;28;20201;-84
2023/09/24 03:19:09;;;;;;;1.23;1.13;;;;;;;13.80;79.45;96425.06;5072625;28;20201;-84
2023/09/24 03:21:37;;;;;;;1.60;1.50;;;;;;;13.71;79.69;96420.13;5072951;28;20710;-85
2023/09/24 03:24:04;;;;;;;1.67;1.50;;;;;;;13.69;79.79;96429.84;5072580;28;20216;-85
2023/09/24 03:26:30;;;;;;;2.43;1.80;;;;;;;13.69;79.51;96422.88;5073104;28;20229;-85
2023/09/24 03:28:57;;;;;;;2.30;1.35;;;;;;;13.67;79.78;96434.38;5072924;28;20204;-85
2023/09/24 03:31:23;;;;;;;5.90;1.73;;;;;;;13.63;80.15;96444.31;5077087;28;20700;-84
2023/09/24 03:33:51;;;;;;;2.40;1.60;;;;;;;13.62;79.92;96440.09;5076633;28;20232;-85
2023/09/24 03:36:17;;;;;;;1.87;1.60;;;;;;;13.51;82.39;96484.47;5072960;28;20225;-85
2023/09/24 03:38:45;;;;;;;1.83;1.50;;;;;;;13.52;81.57;96480.13;5074711;28;20201;-84
2023/09/24 03:41:11;;;;;;;1.80;1.70;;;;;;;13.55;81.16;96470.22;5087439;28;20200;-85
2023/09/24 03:43:38;;;;;;;1.50;1.40;;;;;;;13.54;80.63;96460.06;5078134;28;20217;-85
2023/09/24 03:46:04;;;;;;;1.33;1.23;;;;;;;13.52;80.80;96457.63;5076956;28;20205;-84
2023/09/24 03:48:31;;;;;;;1.57;1.33;;;;;;;13.58;80.20;96448.38;5080596;28;20209;-84
2023/09/24 03:50:57;;;;;;;2.07;1.10;;;;;;;13.61;80.09;96448.84;5072196;28;20211;-85
2023/09/24 03:53:23;;;;;;;1.92;1.40;;;;;;;13.66;79.78;96443.16;5071926;28;20239;-85
2023/09/24 03:55:52;;;;;;;1.87;1.50;;;;;;;13.60;79.86;96436.09;5071976;28;20227;-84
2023/09/24 03:58:19;;;;;;;2.13;1.58;;;;;;;13.60;79.84;96436.88;5072419;28;20200;-84
2023/09/24 04:00:46;;;;;;;2.53;1.40;;;;;;;13.63;79.61;96433.16;5078965;28;20231;-85
2023/09/24 04:03:14;;;;;;;1.40;1.30;;;;;;;13.57;79.33;96429.47;5092190;28;20220;-85
2023/09/24 04:05:40;;;;;;;2.70;1.50;;;;;;;13.56;79.17;96430.44;5072998;28;20204;-85
2023/09/24 04:08:06;;;;;;;3.03;1.33;;;;;;;13.54;79.28;96429.00;5072295;28;20197;-84
2023/09/24 04:10:33;;;;;;;3.35;1.40;;;;;;;13.46;79.84;96438.47;5072869;28;20189;-84
2023/09/24 04:13:00;;;;;;;1.60;1.50;;;;;;;13.47;79.78;96432.28;5068986;28;20213;-85
2023/09/24 04:15:28;;;;;;;1.53;1.30;;;;;;;13.43;79.89;96443.97;5068101;28;20212;-84
2023/09/24 04:17:56;;;;;;;2.03;1.50;;;;;;;13.44;79.76;96442.19;5070780;28;20197;-84
2023/09/24 04:20:23;;;;;;;6.07;2.33;;;;;;;13.44;79.50;96440.41;5069573;28;20641;-85
2023/09/24 04:22:49;;;;;;;1.57;1.47;;;;;;;13.41;79.13;96430.41;5071389;28;20601;-84
2023/09/24 04:25:20;;;;;;;2.03;1.30;;;;;;;13.41;79.03;96435.56;5071123;28;20188;-84
2023/09/24 04:27:46;;;;;;;1.80;1.40;;;;;;;13.40;79.13;96435.75;5070899;28;20201;-84
2023/09/24 04:30:16;;;;;;;3.77;1.70;;;;;;;13.35;79.02;96440.63;5051953;28;20206;-84
2023/09/24 04:32:43;;;;;;;2.43;1.50;;;;;;;13.37;78.93;96436.09;5052077;28;20233;-84
2023/09/24 04:35:11;;;;;;;2.57;1.70;;;;;;;13.27;79.87;96458.81;5070313;28;20227;-85
2023/09/24 04:37:38;;;;;;;3.10;1.30;;;;;;;13.25;79.95;96461.56;5075645;28;20200;-84
2023/09/24 04:40:07;;;;;;;5.47;1.77;;;;;;;13.27;79.35;96458.81;5065316;28;20232;-85
2023/09/24 04:42:34;;;;;;;3.00;1.63;;;;;;;13.17;79.41;96453.03;5071579;28;20224;-85
2023/09/24 04:45:01;;;;;;;1.83;1.50;;;;;;;13.18;79.95;96473.56;5071763;28;20289;-84
2023/09/24 04:47:29;;;;;;;2.03;1.50;;;;;;;13.16;79.69;96462.56;5076208;28;20670;-85
2023/09/24 04:49:55;;;;;;;2.40;1.60;;;;;;;13.14;79.52;96465.28;5077025;28;20725;-85
2023/09/24 04:52:22;;;;;;;1.70;1.60;;;;;;;13.14;79.44;96461.91;5074844;28;20946;-85
2023/09/24 04:54:48;;;;;;;1.97;1.50;;;;;;;13.14;79.34;96467.06;5075963;28;20653;-84
2023/09/24 04:57:14;;;;;;;4.77;1.60;;;;;;;13.11;79.71;96467.41;5076406;28;20658;-84
2023/09/24 04:59:41;;;;;;;3.90;1.53;;;;;;;13.06;79.82;96465.34;5076570;28;20719;-84
2023/09/24 05:02:07;;;;;;;1.80;1.30;;;;;;;12.99;79.88;96467.00;5075795;28;20597;-85
2023/09/24 05:04:35;;;;;;;1.85;1.58;;;;;;;13.02;79.87;96473.63;5075678;28;20201;-84
2023/09/24 05:07:02;;;;;;;1.83;1.60;;;;;;;13.03;79.72;96470.06;5076374;28;20203;-84
2023/09/24 05:09:30;;;;;;;3.03;1.63;;;;;;;12.90;82.93;96542.16;5073816;28;20211;-85
2023/09/24 05:11:56;;;;;;;1.53;1.40;;;;;;;12.87;81.91;96508.91;5075320;28;20258;-85
2023/09/24 05:14:23;;;;;;;2.40;1.40;;;;;;;12.86;81.49;96499.53;5075796;28;20211;-85
2023/09/24 05:16:51;;;;;;;1.50;1.40;;;;;;;12.90;81.12;96504.19;5074770;28;20695;-85
2023/09/24 05:19:17;;;;;;;2.33;1.60;;;;;;;12.88;81.34;96511.31;5075548;28;20204;-84
2023/09/24 05:21:45;;;;;;;1.93;1.70;;;;;;;12.86;80.87;96509.88;5075384;28;20203;-85
2023/09/24 05:24:12;;;;;;;1.60;1.50;;;;;;;12.88;80.69;96505.34;5074318;28;20204;-84
2023/09/24 05:26:39;;;;;;;3.57;2.03;;;;;;;12.91;80.56;96503.22;5074461;28;20212;-84
2023/09/24 05:29:06;;;;;;;3.80;1.60;;;;;;;12.98;80.03;96500.78;5076810;28;20201;-84
2023/09/24 05:31:33;;;;;;;1.90;1.57;;;;;;;13.03;80.11;96503.66;5084916;28;20223;-84
2023/09/24 05:33:59;;;;;;;1.70;1.57;;;;;;;13.07;80.42;96512.69;5088381;28;20619;-85
2023/09/24 05:36:26;;;;;;;1.67;1.57;;;;;;;13.11;80.46;96511.38;5095594;28;20216;-85
2023/09/24 05:38:53;;;;;;;2.73;1.60;;;;;;;13.07;80.50;96518.69;5094760;28;20204;-85
2023/09/24 05:41:20;;;;;;;2.17;1.47;;;;;;;13.06;80.60;96524.81;5076107;28;20196;-85
2023/09/24 05:43:47;;;;;;;1.50;1.40;;;;;;;13.06;80.50;96526.59;5074308;28;20243;-85
2023/09/24 05:46:16;;;;;;;4.03;1.80;;;;;;;13.05;80.55;96527.56;5074470;28;20262;-85
2023/09/24 05:48:44;;;;;;;2.27;1.90;;;;;;;13.03;80.08;96512.22;5074588;28;20204;-85
2023/09/24 05:51:10;;;;;;;2.17;1.40;;;;;;;13.07;80.25;96535.97;5074570;28;20704;-85
2023/09/24 05:53:37;;;;;;;2.50;1.40;;;;;;;13.14;80.37;96531.72;5074182;28;20221;-85
2023/09/24 05:56:05;;;;;;;1.40;1.30;;;;;;;13.07;81.11;96562.63;5073699;28;20260;-84
2023/09/24 05:58:31;;;;;;;1.83;1.50;;;;;;;13.07;81.23;96567.81;5072803;28;20215;-85
2023/09/24 06:00:58;;;;;;;3.13;1.77;;;;;;;13.19;80.61;96551.94;5074487;28;20810;-85
2023/09/24 06:03:26;;;;;;;1.50;1.40;;;;;;;13.13;81.01;96564.53;5073845;28;20423;-85
2023/09/24 06:05:53;;;;;;;2.07;1.70;;;;;;;13.24;80.44;96550.47;5074979;28;20264;-85
2023/09/24 06:08:19;;;;;;;1.67;1.30;;;;;;;13.28;80.82;96556.88;5074742;28;20205;-85
2023/09/24 06:10:46;;;;;;;2.43;1.70;;;;;;;13.30;80.96;96565.28;5074911;28;20201;-85
2023/09/24 06:13:16;;;;;;;2.40;1.50;;;;;;;13.35;80.46;96550.06;5072538;28;20220;-84
2023/09/24 06:15:43;;;;;;;2.13;1.70;;;;;;;13.35;80.05;96541.50;5074257;28;20615;-85
2023/09/24 06:18:10;;;;;;;6.73;1.50;;;;;;;13.41;79.82;96543.41;5074535;28;20201;-85
2023/09/24 06:20:40;;;;;;;2.70;1.90;;;;;;;13.48;79.64;96542.56;5074617;28;20605;-85
2023/09/24 06:23:08;;;;;;;2.20;1.47;;;;;;;13.62;79.61;96548.78;5075853;28;20223;-85
2023/09/24 06:25:35;;;;;;;1.83;1.43;;;;;;;13.79;79.18;96546.91;5077109;28;20193;-85
2023/09/24 06:28:04;;;;;;;2.13;1.60;;;;;;;14.00;78.39;96536.72;5084232;28;20208;-85
2023/09/24 06:30:32;;;;;;;1.73;1.53;;;;;;;14.13;77.58;96518.78;5076753;28;20217;-85
2023/09/24 06:32:58;;;;;;;1.90;1.40;;;;;;;14.30;76.54;96503.91;5074719;28;20228;-85
2023/09/24 06:35:24;;;;;;;3.17;1.77;;;;;;;14.47;75.64;96473.47;5073079;28;20212;-85
2023/09/24 06:37:51;;;;;;;3.08;1.60;;;;;;;14.63;74.67;96454.34;5062684;28;20699;-85
2023/09/24 06:40:18;;;;;;;4.57;1.80;;;;;;;14.78;74.22;96455.16;5053625;28;20205;-85
2023/09/24 06:42:45;;;;;;;1.60;1.50;;;;;;;14.98;74.12;96447.59;5058950;28;20220;-85
2023/09/24 06:45:12;;;;;;;2.00;1.55;;;;;;;15.13;73.49;96432.78;5072920;28;20205;-85
2023/09/24 06:47:39;;;;;;;1.70;1.60;;;;;;;15.29;72.83;96424.78;5073539;28;20208;-85
2023/09/24 06:50:07;;;;;;;2.15;1.77;;;;;;;15.50;72.08;96406.59;5073379;28;20196;-84
2023/09/24 06:52:34;;;;;;;2.25;1.70;;;;;;;15.61;71.60;96396.72;5072737;28;20224;-85
2023/09/24 06:55:01;;;;;;;1.60;1.48;;;;;;;15.77;70.80;96376.50;5073098;28;20203;-85
2023/09/24 06:57:27;;;;;;;2.20;1.60;;;;;;;15.92;69.38;96336.63;5073049;28;20232;-84
2023/09/24 06:59:54;;;;;;;1.70;1.60;;;;;;;16.12;69.48;96345.34;5072633;28;20666;-85
2023/09/24 07:02:20;;;;;;;2.20;1.88;;;;;;;16.21;69.41;96347.56;5071691;28;20712;-84
2023/09/24 07:04:50;;;;;;;2.33;1.65;;;;;;;16.35;68.51;96313.88;5072769;28;20208;-85
2023/09/24 07:07:17;;;;;;;1.70;1.60;;;;;;;16.52;68.38;96320.31;5072428;28;20201;-84
2023/09/24 07:09:43;;;;;;;2.05;1.85;;;;;;;16.64;67.80;96305.78;5072898;28;20207;-85
2023/09/24 07:12:09;;;;;;;2.42;2.20;;;;;;;16.85;66.86;96264.00;5072893;28;20228;-85
2023/09/24 07:14:36;;;;;;;2.33;1.73;;;;;;;17.04;65.77;96230.41;5072675;28;20209;-85
2023/09/24 07:17:02;;;;;;;3.00;1.90;;;;;;;17.10;65.37;96216.59;5072025;28;20236;-85
2023/09/24 07:19:29;;;;;;;1.85;1.75;;;;;;;17.26;65.48;96227.38;5070577;28;20200;-86
2023/09/24 07:21:57;;;;;;;3.65;1.70;;;;;;;17.29;64.18;96178.53;5072695;28;20204;-85
2023/09/24 07:24:24;;;;;;;2.53;1.80;;;;;;;17.45;64.20;96180.69;5080949;28;20274;-85
2023/09/24 07:26:51;;;;;;;2.08;1.70;;;;;;;17.52;64.46;96195.28;5092651;28;20200;-85
2023/09/24 07:29:17;;;;;;;6.18;2.45;;;;;;;17.63;62.78;96117.53;5092896;28;20203;-85
2023/09/24 07:31:43;;;;;;;2.10;1.60;;;;;;;17.88;63.22;96150.50;5093453;28;20204;-85
2023/09/24 07:34:10;;;;;;;2.30;1.90;;;;;;;18.06;62.72;96136.78;5082755;28;20208;-85
2023/09/24 07:36:37;;;;;;;1.77;1.60;;;;;;;18.01;61.73;96078.47;5071996;28;20596;-85
2023/09/24 07:39:04;;;;;;;9.60;6.95;;;;;;;18.13;61.59;96076.78;5071014;28;20643;-85
2023/09/24 07:41:31;;;;;;;12.77;11.57;;;;;;;18.33;61.51;96077.44;5071990;28;20211;-85
2023/09/24 07:43:57;;;;;;;7.32;6.63;;;;;;;18.52;60.66;96055.59;5071433;28;20694;-85
2023/09/24 07:46:24;;;;;;;2.53;2.22;;;;;;;18.77;60.02;96020.91;5071742;28;20212;-85
2023/09/24 07:48:50;;;;;;;12.13;1.90;;;;;;;18.67;59.27;95971.81;5072033;28;20270;-85
2023/09/24 07:51:17;;;;;;;2.05;1.80;;;;;;;18.68;58.17;95930.88;5070001;28;20208;-85
2023/09/24 07:53:45;;;;;;;2.15;1.95;;;;;;;18.77;58.00;95917.34;5071589;28;20235;-85
2023/09/24 07:56:13;;;;;;;3.15;1.70;;;;;;;18.83;57.80;95915.69;5071460;28;20224;-85
2023/09/24 07:58:40;;;;;;;24.95;22.30;;;;;;;18.91;57.49;95902.31;5071972;28;20201;-84
2023/09/24 08:01:08;;;;;;;13.82;12.38;;;;;;;19.18;56.93;95898.34;5072253;28;20573;-85
2023/09/24 08:03:36;;;;;;;6.50;4.88;;;;;;;19.31;55.94;95840.69;5072343;28;20892;-85
2023/09/24 08:06:03;;;;;;;4.10;2.05;;;;;;;19.38;55.63;95831.97;5070335;28;20196;-85
2023/09/24 08:08:30;;;;;;;1.98;1.70;;;;;;;19.26;54.49;95764.84;5072283;28;20204;-86
2023/09/24 08:10:58;;;;;;;4.00;2.03;;;;;;;19.30;55.58;95814.81;5072183;28;20212;-85
2023/09/24 08:13:26;;;;;;;2.47;1.95;;;;;;;19.50;54.64;95773.53;5071288;28;20216;-85
2023/09/24 08:15:56;;;;;;;3.05;1.67;;;;;;;19.62;54.73;95789.22;5071669;28;20216;-85
2023/09/24 08:18:22;;;;;;;1.90;1.50;;;;;;;19.29;54.75;95767.03;5051477;28;20220;-85
2023/09/24 08:20:50;;;;;;;2.35;2.15;;;;;;;18.83;55.55;95791.25;5077339;28;20201;-85
2023/09/24 08:23:18;;;;;;;2.75;1.90;;;;;;;19.15;54.47;95759.63;5070741;28;20232;-85
2023/09/24 08:25:44;;;;;;;1.92;1.55;;;;;;;19.53;53.47;95736.50;5071393;28;20204;-85
2023/09/24 08:28:11;;;;;;;2.70;1.80;;;;;;;19.86;54.20;95772.47;5071412;28;20204;-84
2023/09/24 08:30:39;;;;;;;2.42;1.70;;;;;;;20.02;53.18;95716.88;5071433;28;20251;-85
2023/09/24 08:33:07;;;;;;;21.85;19.65;;;;;;;20.25;53.03;95716.00;5071492;28;20274;-85
2023/09/24 08:35:33;;;;;;;4.47;2.85;;;;;;;19.75;51.74;95634.81;5071229;28;20213;-85
2023/09/24 08:38:00;;;;;;;2.13;1.85;;;;;;;19.35;53.14;95687.00;5060001;28;20217;-85
2023/09/24 08:40:29;;;;;;;2.75;1.85;;;;;;;18.96;53.83;95714.56;5071359;28;20695;-85
2023/09/24 08:42:57;;;;;;;2.75;1.70;;;;;;;18.61;54.01;95728.34;5071625;28;20212;-86
2023/09/24 08:45:26;;;;;;;3.63;1.88;;;;;;;18.60;55.18;95791.94;5071550;28;20200;-85
2023/09/24 08:47:54;;;;;;;4.82;1.58;;;;;;;18.57;54.46;95765.47;5071533;28;20208;-86
2023/09/24 08:50:22;;;;;;;1.83;1.38;;;;;;;18.65;54.98;95791.28;5071350;28;20212;-85
2023/09/24 08:52:48;;;;;;;1.70;1.40;;;;;;;18.55;54.78;95785.78;5071074;28;20720;-85
2023/09/24 08:55:15;;;;;;;2.28;1.85;;;;;;;18.15;55.13;95783.66;5069688;28;20201;-86
2023/09/24 08:57:43;;;;;;;2.05;1.40;;;;;;;17.79;56.41;95838.38;5070972;28;20243;-85
2023/09/24 09:00:11;;;;;;;3.03;1.90;;;;;;;17.50;56.54;95845.00;5071014;28;20200;-84
2023/09/24 09:02:39;;;;;;;2.05;1.58;;;;;;;17.40;57.64;95907.94;5070769;28;20220;-85
2023/09/24 09:05:12;;;;;;;2.75;1.70;;;;;;;17.13;58.14;95937.72;5073450;28;20205;-85
2023/09/24 09:07:41;;;;;;;2.45;1.50;;;;;;;17.09;57.92;95931.38;5075798;28;20383;-85
2023/09/24 09:10:08;;;;;;;4.10;1.90;;;;;;;17.19;58.21;95950.72;5069871;28;20215;-84
2023/09/24 09:12:34;;;;;;;2.33;1.88;;;;;;;17.24;58.92;95970.91;5070852;28;20252;-85
2023/09/24 09:15:01;;;;;;;2.72;1.60;;;;;;;17.18;58.78;95969.94;5071189;28;20200;-85
2023/09/24 09:17:40;;;;;;;3.42;1.63;;;;;;;17.06;58.53;95955.19;5084184;28;20220;-85
2023/09/24 09:20:08;;;;;;;3.42;1.70;;;;;;;17.10;59.06;95985.00;5071611;28;20223;-85
2023/09/24 09:22:35;;;;;;;2.97;1.83;;;;;;;17.00;59.76;96011.44;5071773;28;20227;-85
2023/09/24 09:25:04;;;;;;;2.10;1.55;;;;;;;17.38;59.75;96013.28;5071696;28;20688;-85
2023/09/24 09:27:33;;;;;;;3.67;1.77;;;;;;;17.62;58.98;95996.94;5069260;28;20251;-85
2023/09/24 09:30:12;;;;;;;2.50;1.60;;;;;;;17.85;58.31;95967.75;5071324;28;20204;-85
2023/09/24 09:32:38;;;;;;;2.13;1.60;;;;;;;18.09;56.41;95872.34;5073903;28;20224;-85
2023/09/24 09:35:06;;;;;;;1.67;1.58;;;;;;;17.91;56.85;95876.50;5072496;28;20207;-85
2023/09/24 09:37:34;;;;;;;9.45;8.35;;;;;;;18.41;57.05;95896.47;5072667;28;20228;-85
2023/09/24 09:40:00;;;;;;;5.85;4.07;;;;;;;18.87;55.44;95834.09;5073342;28;20216;-85
2023/09/24 09:42:32;;;;;;;2.63;1.40;;;;;;;18.93;53.18;95725.44;5072439;28;20216;-85
2023/09/24 09:45:02;;;;;;;3.40;1.65;;;;;;;19.04;52.28;95672.50;5072867;28;20896;-85
2023/09/24 09:47:34;;;;;;;2.80;1.40;;;;;;;19.16;52.67;95688.94;5073081;28;20197;-85
2023/09/24 09:50:01;;;;;;;2.45;1.55;;;;;;;19.32;51.46;95612.53;5072823;28;20258;-85
2023/09/24 09:52:37;;;;;;;2.35;1.50;;;;;;;19.55;52.02;95637.81;5071938;28;20220;-85
2023/09/24 09:55:06;;;;;;;1.60;1.20;;;;;;;19.31;50.81;95569.16;5072988;28;20208;-85
2023/09/24 09:57:34;;;;;;;2.65;1.30;;;;;;;19.34;51.25;95588.78;5072857;28;20225;-85
2023/09/24 10:00:01;;;;;;;1.30;1.20;;;;;;;19.61;52.35;95678.72;5071134;28;20197;-85
2023/09/24 10:02:29;;;;;;;1.88;1.25;;;;;;;19.88;52.03;95658.06;5072749;28;20293;-85
2023/09/24 10:04:57;;;;;;;1.60;1.45;;;;;;;20.25;51.62;95647.22;5072209;28;20243;-85
2023/09/24 10:07:24;;;;;;;2.40;1.60;;;;;;;20.48;51.07;95617.56;5072163;28;20662;-85
2023/09/24 10:09:52;;;;;;;2.65;1.55;;;;;;;20.51;50.78;95576.03;5071725;28;20269;-85
2023/09/24 10:12:34;;;;;;;3.72;1.45;;;;;;;20.56;49.53;95539.50;5078123;28;20211;-85
2023/09/24 10:15:26;;;;;;;1.75;1.10;;;;;;;20.41;48.94;95467.81;5071649;28;20292;-85
2023/09/24 10:18:24;;;;;;;2.30;1.42;;;;;;;20.33;48.91;95475.03;5070863;28;20278;-85
2023/09/24 10:21:03;;;;;;;2.10;1.48;;;;;;;20.18;48.79;95453.13;5071378;28;20205;-86
2023/09/24 10:23:34;;;;;;;2.97;1.58;;;;;;;20.07;48.73;95446.94;5071591;28;20227;-85
2023/09/24 10:26:05;;;;;;;2.20;1.33;;;;;;;20.05;49.63;95492.63;5071112;28;20697;-85
2023/09/24 10:28:50;;;;;;;2.05;1.35;;;;;;;20.06;49.26;95497.63;5071801;28;20208;-85
2023/09/24 10:31:20;;;;;;;10.25;9.30;;;;;;;19.94;49.67;95504.75;5070024;28;20672;-86
2023/09/24 10:33:55;;;;;;;26.15;23.45;;;;;;;19.78;49.94;95522.00;5071910;28;20236;-85
2023/09/24 10:36:28;;;;;;;4.55;4.15;;;;;;;19.65;49.49;95504.78;5072084;28;20568;-85
2023/09/24 10:39:01;;;;;;;1.90;1.73;;;;;;;19.49;48.99;95471.56;5071725;28;20228;-85
2023/09/24 10:41:29;;;;;;;2.08;1.20;;;;;;;19.15;49.66;95482.94;5072182;28;20238;-85
2023/09/24 10:44:21;;;;;;;1.90;1.20;;;;;;;18.95;50.60;95541.53;5071290;28;20232;-85
2023/09/24 10:46:47;;;;;;;1.40;1.08;;;;;;;18.79;49.59;95479.66;5071787;28;20224;-85
2023/09/24 10:49:18;;;;;;;2.72;1.00;;;;;;;18.54;50.27;95516.38;5070002;28;20216;-85
2023/09/24 10:51:45;;;;;;;2.65;1.60;;;;;;;18.52;51.05;95541.88;5071553;28;20205;-85
2023/09/24 10:54:12;;;;;;;2.70;1.00;;;;;;;18.76;50.30;95547.13;5071385;28;20911;-85
2023/09/24 10:56:40;;;;;;;2.80;1.45;;;;;;;19.04;51.37;95594.19;5071909;28;20234;-85
2023/09/24 10:59:07;;;;;;;3.75;1.52;;;;;;;19.22;50.30;95564.53;5072065;28;20204;-85
2023/09/24 11:01:33;;;;;;;4.13;1.52;;;;;;;19.23;50.35;95548.66;5071374;28;20197;-85
2023/09/24 11:04:00;;;;;;;3.60;1.33;;;;;;;19.29;51.48;95620.00;5070356;28;20231;-86
2023/09/24 11:06:30;;;;;;;1.40;1.27;;;;;;;19.18;52.23;95662.59;5071649;28;20205;-85
2023/09/24 11:09:15;;;;;;;1.65;1.40;;;;;;;19.02;52.90;95695.41;5079770;28;20270;-85
2023/09/24 11:11:43;;;;;;;3.08;1.55;;;;;;;19.02;52.80;95690.19;5090508;28;20196;-85
2023/09/24 11:14:14;;;;;;;2.92;1.40;;;;;;;18.93;52.54;95686.31;5092412;28;20246;-85
2023/09/24 11:16:41;;;;;;;2.67;1.63;;;;;;;18.83;53.23;95710.38;5086142;28;20199;-85
2023/09/24 11:19:07;;;;;;;1.70;1.50;;;;;;;18.94;53.49;95725.22;5071731;28;20221;-85
2023/09/24 11:21:34;;;;;;;1.48;1.38;;;;;;;19.12;52.45;95679.16;5070584;28;20209;-85
2023/09/24 11:24:00;;;;;;;1.30;1.20;;;;;;;19.09;51.41;95630.03;5071343;28;20608;-85
2023/09/24 11:26:30;;;;;;;1.35;1.25;;;;;;;18.95;50.86;95580.69;5071553;28;20737;-85
2023/09/24 11:28:58;;;;;;;2.40;1.58;;;;;;;18.99;51.13;95596.69;5071875;28;20204;-85
2023/09/24 11:31:25;;;;;;;2.08;1.30;;;;;;;18.96;50.31;95556.19;5071440;28;20216;-85
2023/09/24 11:33:56;;;;;;;2.28;1.40;;;;;;;18.83;51.05;95603.41;5071249;28;20853;-85
2023/09/24 11:36:27;;;;;;;2.15;1.38;;;;;;;18.68;51.50;95599.63;5069798;28;20204;-85
2023/09/24 11:39:00;;;;;;;2.58;1.45;;;;;;;18.70;51.59;95592.38;5070477;28;20598;-85